Flight Track Log - Related Links

Times and Time Zones

All times are in EDT time to prevent confusion due to time zone crossing. See the GJS3649 flight status page for this flight to view local times or setup timezone preferences in your user account.

Time Position Orientation Groundspeed Altitude Reporting Facility
EDT Latitude Longitude Course Direction KTS MPH feet Rate Location/Type
Wed 07:21:20 AM 36.2156 -95.8814 360° North 162 186 1,100  Level Kansas City Center
Wed 07:22:26 AM 36.2764 -95.8814 360° North 207 238 3,400 1,821 Climbing Kansas City Center
Wed 07:23:12 AM 36.3069 -95.8500 40° Northeast 222 255 4,500 1,907 Climbing Kansas City Center
Wed 07:24:13 AM 36.3414 -95.7700 62° Northeast 260 299 6,800 2,410 Climbing Kansas City Center
Wed 07:25:14 AM 36.3778 -95.6869 61° Northeast 271 312 9,400 2,430 Climbing Kansas City Center
Wed 07:26:14 AM 36.4350 -95.6131 46° Northeast 292 336 11,700 2,033 Climbing Kansas City Center
Wed 07:27:15 AM 36.4986 -95.5325 45° Northeast 315 362 13,500 1,770 Climbing Kansas City Center
Wed 07:28:16 AM 36.5681 -95.4422 46° Northeast 347 399 15,300 1,869 Climbing Kansas City Center
Wed 07:29:17 AM 36.6383 -95.3503 46° Northeast 359 413 17,300 1,918 Climbing Kansas City Center
Wed 07:30:18 AM 36.7097 -95.2575 46° Northeast 366 421 19,200 1,835 Climbing Kansas City Center
Wed 07:31:18 AM 36.7814 -95.1636 46° Northeast 369 425 21,000 1,636 Climbing Kansas City Center
Wed 07:32:19 AM 36.8553 -95.0672 46° Northeast 376 433 22,500 1,525 Climbing Kansas City Center
Wed 07:33:20 AM 36.9325 -94.9672 46° Northeast 391 450 24,100 1,475 Climbing Kansas City Center
Wed 07:34:21 AM 37.0094 -94.8653 47° Northeast 400 460 25,500 1,180 Climbing Kansas City Center
Wed 07:35:22 AM 37.0886 -94.7631 46° Northeast 406 467 26,500 1,033 Climbing Kansas City Center
Wed 07:36:23 AM 37.1700 -94.6528 47° Northeast 422 486 27,600 1,041 Climbing Kansas City Center
Wed 07:37:23 AM 37.2539 -94.5428 46° Northeast 431 496 28,600 992 Climbing Kansas City Center
Wed 07:38:24 AM 37.3378 -94.4289 47° Northeast 440 506 29,600 984 Climbing Kansas City Center
Wed 07:39:25 AM 37.4219 -94.3133 47° Northeast 445 512 30,600 984 Climbing Kansas City Center
Wed 07:40:26 AM 37.5075 -94.1992 47° Northeast 447 514 31,600 1,033 Climbing Kansas City Center
Wed 07:41:27 AM 37.5978 -94.0767 47° Northeast 449 517 32,700 984 Climbing Kansas City Center
Wed 07:42:28 AM 37.6831 -93.9617 47° Northeast 449 517 33,600 787 Climbing Kansas City Center
Wed 07:43:29 AM 37.7697 -93.8444 47° Northeast 452 520 34,300 689 Climbing Kansas City Center
Wed 07:44:30 AM 37.8556 -93.7269 47° Northeast 452 520 35,000 689 Climbing Kansas City Center
Wed 07:45:31 AM 37.9417 -93.6075 48° Northeast 455 524 35,700 787 Climbing Kansas City Center
Wed 07:46:32 AM 38.0281 -93.4911 47° Northeast 453 521 36,600 843 Climbing Kansas City Center
Wed 07:47:32 AM 38.1106 -93.3747 48° Northeast 446 513 37,400 744 Climbing Kansas City Center
Wed 07:48:33 AM 38.1931 -93.2611 47° Northeast 440 506 38,100 639 Climbing Kansas City Center
Wed 07:49:34 AM 38.2744 -93.1486 47° Northeast 433 498 38,700 443 Climbing Kansas City Center
Wed 07:50:35 AM 38.3719 -93.0128 48° Northeast 430 495 39,000 148 Climbing Kansas City Center
Wed 07:51:36 AM 38.4500 -92.9017 48° Northeast 424 488 39,000  Level Kansas City Center
Wed 07:52:37 AM 38.5317 -92.7875 48° Northeast 425 489 39,000  Level Kansas City Center
Wed 07:53:38 AM 38.6156 -92.6689 48° Northeast 438 504 39,000  Level Kansas City Center
Wed 07:54:39 AM 38.6992 -92.5503 48° Northeast 444 511 39,000  Level Kansas City Center
Wed 07:55:40 AM 38.7833 -92.4294 48° Northeast 449 517 39,000  Level Kansas City Center
Wed 07:56:41 AM 38.8692 -92.3053 48° Northeast 456 525 39,000  Level Kansas City Center
Wed 07:57:42 AM 38.9556 -92.1828 48° Northeast 460 529 39,000  Level Kansas City Center
Wed 07:58:43 AM 39.0425 -92.0586 48° Northeast 465 535 39,000  Level Kansas City Center
Wed 07:59:44 AM 39.1278 -91.9331 49° Northeast 464 534 39,000  Level Kansas City Center
Wed 08:00:45 AM 39.2144 -91.8069 48° Northeast 466 536 39,000  Level Kansas City Center
Wed 08:01:46 AM 39.3056 -91.6772 48° Northeast 469 540 39,000  Level Kansas City Center
Wed 08:02:47 AM 39.3828 -91.5633 49° Northeast 471 542 39,000  Level Kansas City Center
Wed 08:03:48 AM 39.4681 -91.4383 49° Northeast 467 537 39,000  Level Kansas City Center
Wed 08:04:49 AM 39.5531 -91.3139 48° Northeast 463 533 39,000 -197 Level Kansas City Center
Wed 08:05:50 AM 39.6367 -91.1897 49° Northeast 459 528 38,600 -836 Descending Kansas City Center
Wed 08:06:51 AM 39.7456 -91.0439 46° Northeast 464 534 37,300 -1,180 Descending Kansas City Center
Wed 08:07:52 AM 39.8497 -90.9433 37° Northeast 461 531 36,200 -1,082 Descending Kansas City Center
Wed 08:08:53 AM 39.9506 -90.8394 38° Northeast 463 533 35,100 -1,131 Descending Kansas City Center
Wed 08:09:54 AM 40.0508 -90.7356 38° Northeast 462 532 33,900 -1,033 Descending Kansas City Center
Wed 08:10:55 AM 40.1514 -90.6350 37° Northeast 458 527 33,000 -443 Descending Kansas City Center
Wed 08:11:56 AM 40.2522 -90.5319 38° Northeast 458 527 33,000 -49 Level Kansas City Center
Wed 08:12:57 AM 40.3542 -90.4272 38° Northeast 462 532 32,900 -625 Descending Kansas City Center
Wed 08:13:32 AM 40.4150 -90.3656 38° Northeast 461 531 32,000 -1,485 Descending Chicago Center
Wed 08:14:34 AM 40.5175 -90.2642 37° Northeast 459 528 30,500 -1,548 Descending Chicago Center
Wed 08:15:36 AM 40.6475 -90.1961 22° Northeast 459 528 28,800 -1,548 Descending Chicago Center
Wed 08:16:38 AM 40.7697 -90.1872 North 439 505 27,300 -1,415 Descending Chicago Center
Wed 08:17:39 AM 40.8761 -90.1447 17° North 414 476 25,900 -1,366 Descending Chicago Center
Wed 08:18:41 AM 40.9456 -90.0139 55° Northeast 434 499 24,500 -919 Descending Chicago Center
Wed 08:19:43 AM 41.0133 -89.8808 56° Northeast 445 512 24,000 -244 Descending Chicago Center
Wed 08:20:44 AM 41.0817 -89.7453 56° Northeast 443 510 24,000  Level Chicago Center
Wed 08:21:46 AM 41.1483 -89.6117 56° Northeast 436 502 24,000 -1,113 Level Chicago Center
Wed 08:22:48 AM 41.2178 -89.4467 61° Northeast 418 481 21,700 -2,293 Descending Chicago Center
Wed 08:23:49 AM 41.2719 -89.3131 62° Northeast 412 474 19,300 -2,146 Descending Chicago Center
Wed 08:24:51 AM 41.3214 -89.1869 62° Northeast 399 459 17,300 -2,129 Descending Chicago Center
Wed 08:25:53 AM 41.3711 -89.0633 62° Northeast 383 441 14,900 -2,293 Descending Chicago Center
Wed 08:26:54 AM 41.4189 -88.9428 62° Northeast 366 421 12,600 -1,902 Descending Chicago Center
Wed 08:27:56 AM 41.4717 -88.8103 62° Northeast 338 389 11,000 -774 Descending Chicago Center
Wed 08:28:58 AM 41.5169 -88.6964 62° Northeast 348 400 11,000 48 Level Chicago Center
Wed 08:30:00 AM 41.5653 -88.5728 62° Northeast 373 429 11,100  Climbing Chicago Center
Wed 08:31:01 AM 41.6161 -88.4539 60° Northeast 369 425 11,000 -49 Descending Chicago Center
Wed 08:32:03 AM 41.6789 -88.3472 52° Northeast 364 419 11,000 -339 Level Chicago Center
Wed 08:33:05 AM 41.7344 -88.2525 52° Northeast 323 372 10,300 -968 Descending Chicago Center
Wed 08:34:07 AM 41.7828 -88.1703 52° Northeast 287 330 9,000 -1,366 Descending Chicago Center
Wed 08:35:08 AM 41.8297 -88.0878 53° Northeast 278 320 7,500 -1,101 Descending Chicago Center
Wed 08:35:56 AM 41.8833 -88.0000 51° Northeast 274 315 7,000 -263 Descending Chicago TRACON
Wed 08:37:02 AM 41.8833 -87.9000 90° East 282 325 7,000 -190 Level Chicago TRACON
Wed 08:38:02 AM 41.8833 -87.8000 90° East 270 311 6,600 -750 Descending Chicago TRACON
Wed 08:39:02 AM 41.8833 -87.6833 90° East 275 316 5,500 -800 Descending Chicago TRACON
Wed 08:40:02 AM 41.8833 -87.5833 90° East 260 299 5,000 -250 Descending Chicago TRACON
Wed 08:41:02 AM 41.8833 -87.5000 90° East 227 261 5,000  Level Chicago TRACON
Wed 08:41:56 AM 41.8833 -87.4333 90° East 229 264 5,000  Level Chicago TRACON
Wed 08:43:02 AM 41.9167 -87.3667 56° Northeast 239 275 5,000  Level Chicago TRACON
Wed 08:44:03 AM 41.9667 -87.4167 323° Northwest 236 272 5,000  Level Chicago TRACON
Wed 08:45:03 AM 41.9667 -87.5000 270° West 233 268 5,000  Level Chicago TRACON
Wed 08:46:03 AM 41.9667 -87.5833 270° West 222 255 5,000 -579 Level Chicago TRACON
Wed 08:46:57 AM 41.9667 -87.6667 270° West 201 231 3,900 -1,034 Descending Chicago TRACON
Wed 08:47:30 AM 41.9700 -87.6911 280° West 217 250 3,500 -1,011 Descending Chicago Center
Wed 08:48:32 AM 41.9703 -87.7731 270° West 201 231 2,300 -1,016 Descending Chicago Center
Wed 08:49:34 AM 41.9686 -87.8375 268° West 189 217 1,400 -484 Descending Chicago Center
Wed 08:50:36 AM 41.9683 -87.8967 270° West 185 213 1,300 -97 Descending Chicago Center

Login

Don't have an account? Register now (free) for customized features, flight alerts, and more!